Terminal Aerodrome Forecast
Issued by NWS

Home | Current Version | Previous Version | Text Only | Print | Product List | Glossary On
Versions: 1 2 3 4 5 6 7 8 9 10 11 12 13
000
FTPA31 PHFO 101143
TAFHTO
TAF
PHTO 101143Z 1012/1112 22004KT P6SM -SHRA SCT015 BKN035 OVC120
     FM102100 13008KT P6SM VCSH SCT015 OVC040
     FM110500 22004KT P6SM SCT015 OVC040=

USA.gov is the U.S. government's official web portal to all federal, state and local government web resources and services.